sensor_id;sensor_type;location;lat;lon;timestamp;pressure;altitude;pressure_sealevel;temperature;humidity
71976;BME280;68326;52.124;5.424;2023-06-14T00:02:20;101552.41;;;19.07;48.45
71976;BME280;68326;52.124;5.424;2023-06-14T00:04:47;101558.41;;;19.09;48.31
71976;BME280;68326;52.124;5.424;2023-06-14T00:07:14;101553.97;;;19.10;48.24
71976;BME280;68326;52.124;5.424;2023-06-14T00:09:43;101554.94;;;19.09;49.00
71976;BME280;68326;52.124;5.424;2023-06-14T00:12:12;101557.78;;;19.06;48.35
71976;BME280;68326;52.124;5.424;2023-06-14T00:14:39;101553.47;;;19.05;48.13
71976;BME280;68326;52.124;5.424;2023-06-14T00:17:06;101560.56;;;19.04;47.88
71976;BME280;68326;52.124;5.424;2023-06-14T00:19:33;101549.75;;;19.07;48.22
71976;BME280;68326;52.124;5.424;2023-06-14T00:22:02;101551.78;;;19.04;49.23
71976;BME280;68326;52.124;5.424;2023-06-14T00:24:30;101558.66;;;19.06;48.72
71976;BME280;68326;52.124;5.424;2023-06-14T00:26:56;101560.41;;;19.06;48.88
71976;BME280;68326;52.124;5.424;2023-06-14T00:29:23;101556.22;;;19.03;48.10
71976;BME280;68326;52.124;5.424;2023-06-14T00:31:49;101558.97;;;19.02;49.05
71976;BME280;68326;52.124;5.424;2023-06-14T00:34:16;101562.56;;;19.01;48.32
71976;BME280;68326;52.124;5.424;2023-06-14T00:36:43;101560.16;;;18.98;48.90
71976;BME280;68326;52.124;5.424;2023-06-14T00:39:09;101561.13;;;18.97;48.79
71976;BME280;68326;52.124;5.424;2023-06-14T00:41:36;101551.50;;;18.95;48.13
71976;BME280;68326;52.124;5.424;2023-06-14T00:44:02;101555.84;;;18.97;49.94
71976;BME280;68326;52.124;5.424;2023-06-14T00:46:29;101554.63;;;18.89;49.26
71976;BME280;68326;52.124;5.424;2023-06-14T00:48:58;101561.56;;;18.90;50.17
71976;BME280;68326;52.124;5.424;2023-06-14T00:51:26;101558.31;;;18.87;49.77
71976;BME280;68326;52.124;5.424;2023-06-14T00:53:54;101562.03;;;18.84;49.47
71976;BME280;68326;52.124;5.424;2023-06-14T00:56:21;101550.16;;;18.79;49.29
71976;BME280;68326;52.124;5.424;2023-06-14T00:58:49;101551.00;;;18.79;49.91
71976;BME280;68326;52.124;5.424;2023-06-14T01:01:17;101555.84;;;18.72;49.30
71976;BME280;68326;52.124;5.424;2023-06-14T01:03:43;101558.78;;;18.68;50.21
71976;BME280;68326;52.124;5.424;2023-06-14T01:11:40;101561.56;;;18.66;49.74
71976;BME280;68326;52.124;5.424;2023-06-14T01:14:10;101566.44;;;18.60;49.76
71976;BME280;68326;52.124;5.424;2023-06-14T01:16:39;101561.63;;;18.53;50.24
71976;BME280;68326;52.124;5.424;2023-06-14T01:19:10;101558.84;;;18.55;49.49
71976;BME280;68326;52.124;5.424;2023-06-14T01:21:40;101559.19;;;18.50;51.69
71976;BME280;68326;52.124;5.424;2023-06-14T01:24:09;101557.00;;;18.44;49.78
71976;BME280;68326;52.124;5.424;2023-06-14T01:26:38;101562.50;;;18.41;50.12
71976;BME280;68326;52.124;5.424;2023-06-14T01:29:05;101560.06;;;18.38;51.40
71976;BME280;68326;52.124;5.424;2023-06-14T01:31:32;101556.19;;;18.31;50.85
71976;BME280;68326;52.124;5.424;2023-06-14T01:34:07;101552.84;;;18.29;50.24
71976;BME280;68326;52.124;5.424;2023-06-14T01:36:36;101564.00;;;18.32;50.70
71976;BME280;68326;52.124;5.424;2023-06-14T01:39:05;101559.91;;;18.28;50.90
71976;BME280;68326;52.124;5.424;2023-06-14T01:41:33;101562.97;;;18.22;50.03
71976;BME280;68326;52.124;5.424;2023-06-14T01:44:00;101565.94;;;18.18;51.15
71976;BME280;68326;52.124;5.424;2023-06-14T01:46:28;101565.72;;;18.08;52.80
71976;BME280;68326;52.124;5.424;2023-06-14T01:48:54;101564.50;;;18.01;52.44
71976;BME280;68326;52.124;5.424;2023-06-14T01:51:21;101572.19;;;17.91;52.34
71976;BME280;68326;52.124;5.424;2023-06-14T01:53:47;101563.19;;;17.81;52.77
71976;BME280;68326;52.124;5.424;2023-06-14T01:56:14;101572.06;;;17.67;53.54
71976;BME280;68326;52.124;5.424;2023-06-14T01:58:41;101563.13;;;17.57;54.42
71976;BME280;68326;52.124;5.424;2023-06-14T02:01:08;101560.28;;;17.47;54.78
71976;BME280;68326;52.124;5.424;2023-06-14T02:03:34;101562.78;;;17.36;54.47
71976;BME280;68326;52.124;5.424;2023-06-14T02:06:01;101563.41;;;17.26;54.46
71976;BME280;68326;52.124;5.424;2023-06-14T02:08:28;101563.81;;;17.20;56.98
71976;BME280;68326;52.124;5.424;2023-06-14T02:10:54;101558.66;;;17.19;58.19
71976;BME280;68326;52.124;5.424;2023-06-14T02:13:21;101564.44;;;17.11;57.13
71976;BME280;68326;52.124;5.424;2023-06-14T02:15:48;101559.59;;;17.05;56.45
71976;BME280;68326;52.124;5.424;2023-06-14T02:18:17;101556.81;;;16.94;59.26
71976;BME280;68326;52.124;5.424;2023-06-14T02:20:44;101558.63;;;16.79;57.21
71976;BME280;68326;52.124;5.424;2023-06-14T02:23:10;101560.63;;;16.75;59.00
71976;BME280;68326;52.124;5.424;2023-06-14T02:25:37;101564.00;;;16.77;61.04
71976;BME280;68326;52.124;5.424;2023-06-14T02:28:03;101565.78;;;16.77;59.45
71976;BME280;68326;52.124;5.424;2023-06-14T02:30:30;101556.28;;;16.74;58.51
71976;BME280;68326;52.124;5.424;2023-06-14T02:32:57;101563.00;;;16.65;58.60
71976;BME280;68326;52.124;5.424;2023-06-14T02:35:23;101562.91;;;16.67;60.67
71976;BME280;68326;52.124;5.424;2023-06-14T02:37:53;101560.19;;;16.68;58.84
71976;BME280;68326;52.124;5.424;2023-06-14T02:40:19;101564.19;;;16.74;60.13
71976;BME280;68326;52.124;5.424;2023-06-14T02:42:46;101561.09;;;16.67;59.00
71976;BME280;68326;52.124;5.424;2023-06-14T02:45:13;101572.88;;;16.62;61.43
71976;BME280;68326;52.124;5.424;2023-06-14T02:47:39;101575.38;;;16.63;62.45
71976;BME280;68326;52.124;5.424;2023-06-14T02:50:08;101570.03;;;16.65;62.67
71976;BME280;68326;52.124;5.424;2023-06-14T02:52:34;101571.56;;;16.55;60.96
71976;BME280;68326;52.124;5.424;2023-06-14T02:55:01;101570.28;;;16.47;61.48
71976;BME280;68326;52.124;5.424;2023-06-14T02:57:28;101572.16;;;16.45;61.38
71976;BME280;68326;52.124;5.424;2023-06-14T02:59:54;101577.88;;;16.38;62.73
71976;BME280;68326;52.124;5.424;2023-06-14T03:02:21;101578.09;;;16.35;63.64
71976;BME280;68326;52.124;5.424;2023-06-14T03:04:47;101584.84;;;16.39;63.14
71976;BME280;68326;52.124;5.424;2023-06-14T03:07:14;101583.34;;;16.35;61.04
71976;BME280;68326;52.124;5.424;2023-06-14T03:09:46;101586.28;;;16.30;62.20
71976;BME280;68326;52.124;5.424;2023-06-14T03:12:13;101587.84;;;16.33;60.34
71976;BME280;68326;52.124;5.424;2023-06-14T03:14:39;101589.06;;;16.27;62.43
71976;BME280;68326;52.124;5.424;2023-06-14T03:17:06;101592.28;;;16.18;61.21
71976;BME280;68326;52.124;5.424;2023-06-14T03:19:34;101598.19;;;16.07;60.82
71976;BME280;68326;52.124;5.424;2023-06-14T03:22:01;101595.19;;;15.99;64.00
71976;BME280;68326;52.124;5.424;2023-06-14T03:24:28;101597.16;;;15.95;64.17
71976;BME280;68326;52.124;5.424;2023-06-14T03:26:55;101600.53;;;15.97;64.56
71976;BME280;68326;52.124;5.424;2023-06-14T03:29:23;101598.84;;;15.96;60.18
71976;BME280;68326;52.124;5.424;2023-06-14T03:31:58;101594.81;;;16.05;61.84
71976;BME280;68326;52.124;5.424;2023-06-14T03:34:25;101599.22;;;16.04;63.48
71976;BME280;68326;52.124;5.424;2023-06-14T03:36:52;101599.31;;;16.03;60.18
71976;BME280;68326;52.124;5.424;2023-06-14T03:39:19;101596.31;;;15.95;63.73
71976;BME280;68326;52.124;5.424;2023-06-14T03:41:46;101608.22;;;15.86;64.51
71976;BME280;68326;52.124;5.424;2023-06-14T03:44:15;101609.72;;;15.90;64.41
71976;BME280;68326;52.124;5.424;2023-06-14T03:46:42;101609.59;;;15.92;61.25
71976;BME280;68326;52.124;5.424;2023-06-14T03:49:08;101605.88;;;15.96;61.92
71976;BME280;68326;52.124;5.424;2023-06-14T03:51:35;101609.72;;;16.04;62.42
71976;BME280;68326;52.124;5.424;2023-06-14T03:54:01;101617.34;;;16.09;60.13
71976;BME280;68326;52.124;5.424;2023-06-14T03:56:48;101618.16;;;16.09;61.25
71976;BME280;68326;52.124;5.424;2023-06-14T03:59:14;101623.41;;;16.09;62.37
71976;BME280;68326;52.124;5.424;2023-06-14T04:01:41;101617.97;;;16.13;62.26
71976;BME280;68326;52.124;5.424;2023-06-14T04:04:12;101626.72;;;16.13;60.57
71976;BME280;68326;52.124;5.424;2023-06-14T04:06:39;101624.91;;;16.14;61.47
71976;BME280;68326;52.124;5.424;2023-06-14T04:09:06;101631.00;;;16.14;63.71
71976;BME280;68326;52.124;5.424;2023-06-14T04:11:33;101631.84;;;16.15;60.85
71976;BME280;68326;52.124;5.424;2023-06-14T04:14:02;101632.31;;;16.21;60.63
71976;BME280;68326;52.124;5.424;2023-06-14T04:16:29;101638.22;;;16.25;60.36
71976;BME280;68326;52.124;5.424;2023-06-14T04:18:55;101635.88;;;16.35;62.28
71976;BME280;68326;52.124;5.424;2023-06-14T04:21:24;101637.25;;;16.40;62.01
71976;BME280;68326;52.124;5.424;2023-06-14T04:23:52;101644.13;;;16.43;61.76
71976;BME280;68326;52.124;5.424;2023-06-14T04:26:19;101644.22;;;16.41;60.62
71976;BME280;68326;52.124;5.424;2023-06-14T04:28:48;101644.03;;;16.44;59.84
71976;BME280;68326;52.124;5.424;2023-06-14T04:31:15;101641.31;;;16.46;59.11
71976;BME280;68326;52.124;5.424;2023-06-14T04:33:42;101639.88;;;16.55;61.54
71976;BME280;68326;52.124;5.424;2023-06-14T04:36:10;101645.06;;;16.56;60.48
71976;BME280;68326;52.124;5.424;2023-06-14T04:38:38;101643.09;;;16.60;59.39
71976;BME280;68326;52.124;5.424;2023-06-14T04:41:04;101647.94;;;16.66;61.34
71976;BME280;68326;52.124;5.424;2023-06-14T04:43:31;101642.50;;;16.69;60.13
71976;BME280;68326;52.124;5.424;2023-06-14T04:46:06;101644.81;;;16.74;59.66
71976;BME280;68326;52.124;5.424;2023-06-14T04:48:40;101653.25;;;16.79;58.28
71976;BME280;68326;52.124;5.424;2023-06-14T04:51:08;101656.09;;;16.90;59.48
71976;BME280;68326;52.124;5.424;2023-06-14T04:53:35;101661.88;;;16.95;60.07
71976;BME280;68326;52.124;5.424;2023-06-14T04:56:02;101657.38;;;16.97;58.19
71976;BME280;68326;52.124;5.424;2023-06-14T04:58:30;101655.31;;;17.02;58.29
71976;BME280;68326;52.124;5.424;2023-06-14T05:00:56;101658.38;;;17.09;58.57
71976;BME280;68326;52.124;5.424;2023-06-14T05:03:23;101661.34;;;17.17;58.67
71976;BME280;68326;52.124;5.424;2023-06-14T05:05:50;101662.81;;;17.21;59.78
71976;BME280;68326;52.124;5.424;2023-06-14T05:08:20;101666.75;;;17.28;58.58
71976;BME280;68326;52.124;5.424;2023-06-14T05:10:49;101656.97;;;17.30;58.30
71976;BME280;68326;52.124;5.424;2023-06-14T05:13:16;101663.50;;;17.38;58.01
71976;BME280;68326;52.124;5.424;2023-06-14T05:15:43;101667.63;;;17.42;58.84
71976;BME280;68326;52.124;5.424;2023-06-14T05:18:10;101668.06;;;17.48;56.85
71976;BME280;68326;52.124;5.424;2023-06-14T05:20:37;101663.97;;;17.57;58.31
71976;BME280;68326;52.124;5.424;2023-06-14T05:23:03;101671.56;;;17.62;56.73
71976;BME280;68326;52.124;5.424;2023-06-14T05:25:30;101671.13;;;17.68;57.74
71976;BME280;68326;52.124;5.424;2023-06-14T05:27:56;101671.59;;;17.75;57.23
71976;BME280;68326;52.124;5.424;2023-06-14T05:30:23;101663.25;;;17.81;56.78
71976;BME280;68326;52.124;5.424;2023-06-14T05:32:49;101671.72;;;17.86;57.22
71976;BME280;68326;52.124;5.424;2023-06-14T05:35:16;101668.56;;;17.93;56.97
71976;BME280;68326;52.124;5.424;2023-06-14T05:37:43;101671.84;;;17.97;56.26
71976;BME280;68326;52.124;5.424;2023-06-14T05:40:10;101681.22;;;18.01;57.93
71976;BME280;68326;52.124;5.424;2023-06-14T05:42:37;101682.47;;;18.08;55.84
71976;BME280;68326;52.124;5.424;2023-06-14T05:45:04;101683.94;;;18.12;56.69
71976;BME280;68326;52.124;5.424;2023-06-14T05:47:32;101684.81;;;18.26;56.30
71976;BME280;68326;52.124;5.424;2023-06-14T05:49:58;101689.84;;;18.29;56.05
71976;BME280;68326;52.124;5.424;2023-06-14T05:52:25;101688.59;;;18.34;55.84
71976;BME280;68326;52.124;5.424;2023-06-14T05:54:51;101694.59;;;18.37;54.61
71976;BME280;68326;52.124;5.424;2023-06-14T05:57:18;101687.44;;;18.39;55.31
71976;BME280;68326;52.124;5.424;2023-06-14T05:59:44;101698.88;;;18.50;57.74
71976;BME280;68326;52.124;5.424;2023-06-14T06:02:11;101701.00;;;18.58;57.89
71976;BME280;68326;52.124;5.424;2023-06-14T06:04:37;101701.50;;;18.63;55.48
71976;BME280;68326;52.124;5.424;2023-06-14T06:07:04;101711.50;;;18.71;54.08
71976;BME280;68326;52.124;5.424;2023-06-14T06:09:32;101702.22;;;18.78;55.46
71976;BME280;68326;52.124;5.424;2023-06-14T06:11:59;101703.16;;;18.90;54.58
71976;BME280;68326;52.124;5.424;2023-06-14T06:14:25;101703.31;;;19.00;52.13
71976;BME280;68326;52.124;5.424;2023-06-14T06:16:51;101706.16;;;19.09;54.29
71976;BME280;68326;52.124;5.424;2023-06-14T06:19:19;101711.63;;;19.19;52.82
71976;BME280;68326;52.124;5.424;2023-06-14T06:21:45;101710.81;;;19.30;53.51
71976;BME280;68326;52.124;5.424;2023-06-14T06:24:12;101705.34;;;19.44;53.96
71976;BME280;68326;52.124;5.424;2023-06-14T06:26:38;101709.22;;;19.51;51.59
71976;BME280;68326;52.124;5.424;2023-06-14T06:29:06;101710.22;;;19.62;52.63
71976;BME280;68326;52.124;5.424;2023-06-14T06:31:33;101707.09;;;19.81;51.07
71976;BME280;68326;52.124;5.424;2023-06-14T06:34:00;101710.47;;;19.94;51.63
71976;BME280;68326;52.124;5.424;2023-06-14T06:36:26;101711.56;;;20.03;53.21
71976;BME280;68326;52.124;5.424;2023-06-14T06:38:52;101707.25;;;20.13;52.01
71976;BME280;68326;52.124;5.424;2023-06-14T06:41:19;101710.47;;;20.16;49.80
71976;BME280;68326;52.124;5.424;2023-06-14T06:43:45;101721.19;;;20.26;49.68
71976;BME280;68326;52.124;5.424;2023-06-14T06:46:12;101716.28;;;20.33;50.67
71976;BME280;68326;52.124;5.424;2023-06-14T06:48:39;101716.25;;;20.44;51.26
71976;BME280;68326;52.124;5.424;2023-06-14T06:51:06;101723.38;;;20.55;51.48
71976;BME280;68326;52.124;5.424;2023-06-14T06:53:33;101728.09;;;20.63;48.48
71976;BME280;68326;52.124;5.424;2023-06-14T06:56:08;101729.88;;;20.73;48.87
71976;BME280;68326;52.124;5.424;2023-06-14T06:58:34;101731.56;;;20.86;49.13
71976;BME280;68326;52.124;5.424;2023-06-14T07:01:01;101728.16;;;20.95;50.25
71976;BME280;68326;52.124;5.424;2023-06-14T07:03:27;101730.81;;;21.06;49.66
71976;BME280;68326;52.124;5.424;2023-06-14T07:05:54;101737.72;;;21.18;49.42
71976;BME280;68326;52.124;5.424;2023-06-14T07:08:20;101729.75;;;21.30;47.98
71976;BME280;68326;52.124;5.424;2023-06-14T07:10:47;101736.59;;;21.32;48.35
71976;BME280;68326;52.124;5.424;2023-06-14T07:13:13;101729.38;;;21.34;48.58
71976;BME280;68326;52.124;5.424;2023-06-14T07:15:40;101738.28;;;21.45;46.73
71976;BME280;68326;52.124;5.424;2023-06-14T07:18:06;101737.06;;;21.49;46.84
71976;BME280;68326;52.124;5.424;2023-06-14T07:20:34;101736.69;;;21.53;47.73
71976;BME280;68326;52.124;5.424;2023-06-14T07:23:01;101741.88;;;21.55;46.50
71976;BME280;68326;52.124;5.424;2023-06-14T07:25:27;101745.78;;;21.61;48.85
71976;BME280;68326;52.124;5.424;2023-06-14T07:27:54;101742.19;;;21.62;46.61
71976;BME280;68326;52.124;5.424;2023-06-14T07:30:20;101750.97;;;21.62;47.27
71976;BME280;68326;52.124;5.424;2023-06-14T07:32:48;101748.31;;;21.62;47.55
71976;BME280;68326;52.124;5.424;2023-06-14T07:35:15;101752.41;;;21.66;45.93
71976;BME280;68326;52.124;5.424;2023-06-14T07:37:42;101754.53;;;21.72;45.22
71976;BME280;68326;52.124;5.424;2023-06-14T07:40:09;101753.31;;;21.76;45.55
71976;BME280;68326;52.124;5.424;2023-06-14T07:42:36;101756.28;;;21.83;44.87
71976;BME280;68326;52.124;5.424;2023-06-14T07:45:03;101757.94;;;21.95;44.90
71976;BME280;68326;52.124;5.424;2023-06-14T07:47:30;101762.34;;;21.95;44.60
71976;BME280;68326;52.124;5.424;2023-06-14T07:49:57;101762.34;;;21.95;44.20
71976;BME280;68326;52.124;5.424;2023-06-14T07:52:24;101760.31;;;21.98;45.76
71976;BME280;68326;52.124;5.424;2023-06-14T07:54:51;101769.47;;;22.15;45.55
71976;BME280;68326;52.124;5.424;2023-06-14T07:57:17;101766.66;;;22.28;43.93
71976;BME280;68326;52.124;5.424;2023-06-14T07:59:46;101764.19;;;22.36;45.74
71976;BME280;68326;52.124;5.424;2023-06-14T08:02:12;101777.88;;;22.42;42.67
71976;BME280;68326;52.124;5.424;2023-06-14T08:04:39;101776.66;;;22.46;42.63
71976;BME280;68326;52.124;5.424;2023-06-14T08:07:05;101768.03;;;22.53;43.26
71976;BME280;68326;52.124;5.424;2023-06-14T08:09:33;101767.63;;;22.58;44.11
71976;BME280;68326;52.124;5.424;2023-06-14T08:11:59;101765.41;;;22.63;42.84
71976;BME280;68326;52.124;5.424;2023-06-14T08:14:26;101767.56;;;22.79;42.86
71976;BME280;68326;52.124;5.424;2023-06-14T08:16:53;101775.72;;;22.87;45.43
71976;BME280;68326;52.124;5.424;2023-06-14T08:19:20;101775.31;;;22.92;40.99
71976;BME280;68326;52.124;5.424;2023-06-14T08:21:46;101772.72;;;23.02;41.13
71976;BME280;68326;52.124;5.424;2023-06-14T08:24:13;101761.84;;;23.14;42.21
71976;BME280;68326;52.124;5.424;2023-06-14T08:26:40;101777.78;;;23.14;42.68
71976;BME280;68326;52.124;5.424;2023-06-14T08:29:07;101766.28;;;23.14;40.28
71976;BME280;68326;52.124;5.424;2023-06-14T08:31:34;101775.13;;;23.14;40.62
71976;BME280;68326;52.124;5.424;2023-06-14T08:34:00;101769.56;;;23.27;39.75
71976;BME280;68326;52.124;5.424;2023-06-14T08:36:29;101760.16;;;23.33;41.17
71976;BME280;68326;52.124;5.424;2023-06-14T08:38:56;101776.81;;;23.35;40.04
71976;BME280;68326;52.124;5.424;2023-06-14T08:41:23;101775.28;;;23.42;42.15
71976;BME280;68326;52.124;5.424;2023-06-14T08:43:51;101773.19;;;23.55;38.98
71976;BME280;68326;52.124;5.424;2023-06-14T08:46:18;101765.91;;;23.67;39.66
71976;BME280;68326;52.124;5.424;2023-06-14T08:48:47;101765.50;;;23.72;38.44
71976;BME280;68326;52.124;5.424;2023-06-14T08:51:18;101761.03;;;23.82;39.11
71976;BME280;68326;52.124;5.424;2023-06-14T08:53:45;101761.91;;;23.83;39.88
71976;BME280;68326;52.124;5.424;2023-06-14T08:56:13;101765.34;;;23.93;39.06
71976;BME280;68326;52.124;5.424;2023-06-14T08:58:42;101776.16;;;23.91;36.40
71976;BME280;68326;52.124;5.424;2023-06-14T09:01:11;101771.81;;;23.90;35.02
71976;BME280;68326;52.124;5.424;2023-06-14T09:03:43;101772.50;;;23.92;36.54
71976;BME280;68326;52.124;5.424;2023-06-14T09:06:11;101767.44;;;23.99;35.57
71976;BME280;68326;52.124;5.424;2023-06-14T09:08:43;101767.44;;;24.09;36.13
71976;BME280;68326;52.124;5.424;2023-06-14T09:11:14;101767.97;;;24.22;37.26
71976;BME280;68326;52.124;5.424;2023-06-14T09:13:41;101770.19;;;24.27;36.16
71976;BME280;68326;52.124;5.424;2023-06-14T09:16:08;101768.06;;;24.40;37.43
71976;BME280;68326;52.124;5.424;2023-06-14T09:18:39;101768.19;;;24.48;39.18
71976;BME280;68326;52.124;5.424;2023-06-14T09:21:08;101776.84;;;24.60;37.13
71976;BME280;68326;52.124;5.424;2023-06-14T09:23:39;101775.00;;;24.60;35.76
71976;BME280;68326;52.124;5.424;2023-06-14T09:26:11;101764.91;;;24.64;37.02
71976;BME280;68326;52.124;5.424;2023-06-14T09:28:47;101774.38;;;24.76;36.71
71976;BME280;68326;52.124;5.424;2023-06-14T09:31:17;101771.50;;;24.88;37.05
71976;BME280;68326;52.124;5.424;2023-06-14T09:33:46;101772.31;;;24.98;38.80
71976;BME280;68326;52.124;5.424;2023-06-14T09:36:21;101777.97;;;25.13;34.80
71976;BME280;68326;52.124;5.424;2023-06-14T09:38:57;101789.44;;;25.13;33.64
71976;BME280;68326;52.124;5.424;2023-06-14T09:41:40;101783.88;;;25.07;33.98
71976;BME280;68326;52.124;5.424;2023-06-14T09:44:10;101783.50;;;25.01;35.28
71976;BME280;68326;52.124;5.424;2023-06-14T09:46:44;101783.28;;;25.13;34.41
71976;BME280;68326;52.124;5.424;2023-06-14T09:49:12;101783.97;;;25.15;35.32
71976;BME280;68326;52.124;5.424;2023-06-14T09:51:45;101775.91;;;25.07;34.46
71976;BME280;68326;52.124;5.424;2023-06-14T09:54:16;101774.81;;;24.99;35.09
71976;BME280;68326;52.124;5.424;2023-06-14T09:56:47;101773.22;;;25.07;34.88
71976;BME280;68326;52.124;5.424;2023-06-14T09:59:21;101766.16;;;25.15;35.07
71976;BME280;68326;52.124;5.424;2023-06-14T10:01:56;101773.13;;;25.26;36.96
71976;BME280;68326;52.124;5.424;2023-06-14T10:04:25;101764.56;;;25.50;34.64
71976;BME280;68326;52.124;5.424;2023-06-14T10:06:53;101763.53;;;25.51;34.54
71976;BME280;68326;52.124;5.424;2023-06-14T10:09:21;101762.72;;;25.51;35.35
71976;BME280;68326;52.124;5.424;2023-06-14T10:11:49;101763.09;;;25.56;34.97
71976;BME280;68326;52.124;5.424;2023-06-14T10:14:16;101764.78;;;25.57;35.47
71976;BME280;68326;52.124;5.424;2023-06-14T10:17:03;101772.59;;;25.76;32.07
71976;BME280;68326;52.124;5.424;2023-06-14T10:19:40;101772.06;;;25.73;30.69
71976;BME280;68326;52.124;5.424;2023-06-14T10:22:19;101777.72;;;25.70;31.94
71976;BME280;68326;52.124;5.424;2023-06-14T10:24:51;101768.63;;;25.62;31.23
71976;BME280;68326;52.124;5.424;2023-06-14T10:27:17;101768.25;;;25.75;29.99
71976;BME280;68326;52.124;5.424;2023-06-14T10:32:20;101759.13;;;25.78;31.93
71976;BME280;68326;52.124;5.424;2023-06-14T10:34:54;101763.44;;;25.97;34.55
71976;BME280;68326;52.124;5.424;2023-06-14T10:37:21;101751.84;;;25.88;32.74
71976;BME280;68326;52.124;5.424;2023-06-14T10:39:47;101755.53;;;26.13;32.40
71976;BME280;68326;52.124;5.424;2023-06-14T10:42:14;101760.94;;;26.21;33.33
71976;BME280;68326;52.124;5.424;2023-06-14T10:44:45;101754.19;;;26.43;33.83
71976;BME280;68326;52.124;5.424;2023-06-14T10:49:54;101756.88;;;26.43;33.41
71976;BME280;68326;52.124;5.424;2023-06-14T10:52:23;101761.06;;;26.46;32.34
71976;BME280;68326;52.124;5.424;2023-06-14T10:54:59;101760.41;;;26.44;31.63
71976;BME280;68326;52.124;5.424;2023-06-14T10:57:25;101757.59;;;26.54;33.70
71976;BME280;68326;52.124;5.424;2023-06-14T10:59:52;101763.16;;;26.60;32.35
71976;BME280;68326;52.124;5.424;2023-06-14T11:05:04;101755.22;;;26.77;31.94
71976;BME280;68326;52.124;5.424;2023-06-14T11:07:55;101748.72;;;26.88;33.07
71976;BME280;68326;52.124;5.424;2023-06-14T11:10:37;101750.38;;;26.80;31.16
71976;BME280;68326;52.124;5.424;2023-06-14T11:13:05;101751.78;;;26.58;30.86
71976;BME280;68326;52.124;5.424;2023-06-14T11:15:36;101750.03;;;26.75;32.42
71976;BME280;68326;52.124;5.424;2023-06-14T11:18:05;101747.50;;;26.66;33.87
71976;BME280;68326;52.124;5.424;2023-06-14T11:20:33;101754.47;;;26.58;32.61
71976;BME280;68326;52.124;5.424;2023-06-14T11:23:01;101757.50;;;26.63;32.37
71976;BME280;68326;52.124;5.424;2023-06-14T11:25:27;101751.34;;;26.71;31.55
71976;BME280;68326;52.124;5.424;2023-06-14T11:27:54;101757.06;;;26.76;31.73
71976;BME280;68326;52.124;5.424;2023-06-14T11:30:22;101754.72;;;26.81;31.01
71976;BME280;68326;52.124;5.424;2023-06-14T11:32:50;101745.34;;;26.77;29.81
71976;BME280;68326;52.124;5.424;2023-06-14T11:35:25;101746.59;;;26.91;30.64
71976;BME280;68326;52.124;5.424;2023-06-14T11:37:55;101740.19;;;26.84;32.59
71976;BME280;68326;52.124;5.424;2023-06-14T11:40:24;101746.53;;;26.75;32.02
71976;BME280;68326;52.124;5.424;2023-06-14T11:43:01;101733.34;;;26.81;32.53
71976;BME280;68326;52.124;5.424;2023-06-14T11:45:29;101732.47;;;26.64;31.24
71976;BME280;68326;52.124;5.424;2023-06-14T11:47:57;101735.03;;;26.82;32.38
71976;BME280;68326;52.124;5.424;2023-06-14T11:50:25;101735.56;;;27.02;32.35
71976;BME280;68326;52.124;5.424;2023-06-14T11:52:59;101750.34;;;27.23;33.70
71976;BME280;68326;52.124;5.424;2023-06-14T11:55:39;101743.94;;;27.16;33.54
71976;BME280;68326;52.124;5.424;2023-06-14T11:58:06;101734.88;;;26.92;32.02
71976;BME280;68326;52.124;5.424;2023-06-14T12:00:35;101744.91;;;26.90;30.43
71976;BME280;68326;52.124;5.424;2023-06-14T12:03:01;101740.19;;;26.84;30.88
71976;BME280;68326;52.124;5.424;2023-06-14T12:05:29;101743.72;;;26.84;31.23
71976;BME280;68326;52.124;5.424;2023-06-14T12:08:00;101732.88;;;26.94;31.15
71976;BME280;68326;52.124;5.424;2023-06-14T12:10:28;101737.72;;;26.82;30.78
71976;BME280;68326;52.124;5.424;2023-06-14T12:12:59;101741.25;;;26.91;30.30
71976;BME280;68326;52.124;5.424;2023-06-14T12:15:29;101744.72;;;26.83;29.90
71976;BME280;68326;52.124;5.424;2023-06-14T12:17:57;101740.38;;;26.82;31.54
71976;BME280;68326;52.124;5.424;2023-06-14T12:20:29;101742.59;;;26.95;32.60
71976;BME280;68326;52.124;5.424;2023-06-14T12:22:57;101745.38;;;26.85;32.16
71976;BME280;68326;52.124;5.424;2023-06-14T12:25:32;101742.75;;;26.94;30.88
71976;BME280;68326;52.124;5.424;2023-06-14T12:28:04;101738.91;;;26.96;31.52
71976;BME280;68326;52.124;5.424;2023-06-14T12:30:33;101748.75;;;26.96;31.10
71976;BME280;68326;52.124;5.424;2023-06-14T12:33:01;101749.06;;;26.84;32.52
71976;BME280;68326;52.124;5.424;2023-06-14T12:35:28;101737.19;;;26.79;31.57
71976;BME280;68326;52.124;5.424;2023-06-14T12:37:54;101746.53;;;26.75;32.43
71976;BME280;68326;52.124;5.424;2023-06-14T12:40:21;101741.06;;;26.84;32.96
71976;BME280;68326;52.124;5.424;2023-06-14T12:42:48;101746.00;;;26.63;32.34
71976;BME280;68326;52.124;5.424;2023-06-14T12:45:15;101736.81;;;26.66;33.81
71976;BME280;68326;52.124;5.424;2023-06-14T12:47:42;101744.78;;;26.57;32.86
71976;BME280;68326;52.124;5.424;2023-06-14T12:50:09;101745.72;;;26.48;33.09
71976;BME280;68326;52.124;5.424;2023-06-14T12:52:35;101738.66;;;26.39;32.74
71976;BME280;68326;52.124;5.424;2023-06-14T12:55:05;101737.50;;;26.33;32.17
71976;BME280;68326;52.124;5.424;2023-06-14T12:57:31;101739.28;;;26.33;33.71
71976;BME280;68326;52.124;5.424;2023-06-14T13:00:00;101744.84;;;26.39;33.95
71976;BME280;68326;52.124;5.424;2023-06-14T13:02:26;101745.34;;;26.43;33.97
71976;BME280;68326;52.124;5.424;2023-06-14T13:04:53;101751.97;;;26.31;33.09
71976;BME280;68326;52.124;5.424;2023-06-14T13:07:19;101747.63;;;26.30;32.50
71976;BME280;68326;52.124;5.424;2023-06-14T13:09:46;101758.78;;;26.25;32.92